METAR: CYYC 091400Z 16010KT 15SM FEW150 16/07 A3022 RMK AC1 AC TR SLP232 DENSITY ALT 4200FT

TAF: CYYC 091148Z 0912/1012 16008KT P6SM BKN060 BECMG 0913/0915 SCT060 FM091600 16010KT P6SM FEW060 BECMG 0917/0919 15015KT SKC FM100200 12008KT P6SM BKN200 BECMG 1004/1006 12004KT FM100900 12004KT P6SM BKN130 BECMG 1010/1012 17005KT RMK NXT FCST BY 091500Z